createdAt,value
2017-11-15T00:00:25.293Z,0.60
2017-11-15T00:02:59.567Z,0.40
2017-11-15T00:05:33.382Z,0.40
2017-11-15T00:08:07.177Z,0.30
2017-11-15T00:10:41.146Z,0.30
2017-11-15T00:13:15.590Z,0.30
2017-11-15T00:15:49.301Z,0.30
2017-11-15T00:18:23.014Z,0.30
2017-11-15T00:20:57.807Z,0.30
2017-11-15T00:23:32.232Z,0.30
2017-11-15T00:26:06.116Z,0.30
2017-11-15T00:28:41.451Z,0.30
2017-11-15T00:31:15.245Z,0.10
2017-11-15T00:33:49.909Z,0.20
2017-11-15T00:36:24.569Z,-0.40
2017-11-15T00:38:58.470Z,-0.40
2017-11-15T00:41:33.082Z,-0.40
2017-11-15T00:44:07.436Z,-0.20
2017-11-15T00:46:41.187Z,0.00
2017-11-15T00:49:15.820Z,0.10
2017-11-15T00:51:49.773Z,0.10
2017-11-15T00:54:23.623Z,0.30
2017-11-15T00:56:57.578Z,0.30
2017-11-15T00:59:32.003Z,0.40
2017-11-15T01:02:05.882Z,0.50
2017-11-15T01:04:39.584Z,0.40
2017-11-15T01:07:13.816Z,0.40
2017-11-15T01:09:48.344Z,0.10
2017-11-15T01:12:22.295Z,0.10
2017-11-15T01:14:57.395Z,-0.30
2017-11-15T01:17:31.175Z,-0.40
2017-11-15T01:20:05.084Z,-0.40
2017-11-15T01:22:38.782Z,-0.50
2017-11-15T01:25:12.585Z,-0.90
2017-11-15T01:27:47.346Z,-0.80
2017-11-15T01:30:21.059Z,-0.60
2017-11-15T01:32:54.986Z,-0.60
2017-11-15T01:35:30.806Z,-0.80
2017-11-15T01:38:05.624Z,-0.90
2017-11-15T01:40:39.660Z,-0.90
2017-11-15T01:43:14.367Z,-0.40
2017-11-15T01:45:48.938Z,-0.40
2017-11-15T01:48:22.719Z,-0.20
2017-11-15T01:50:57.333Z,-0.40
2017-11-15T01:53:31.015Z,-0.40
2017-11-15T01:56:04.859Z,-0.60
2017-11-15T01:58:38.669Z,-1.00
2017-11-15T02:01:15.327Z,-1.00
2017-11-15T02:03:49.205Z,-1.10
2017-11-15T02:06:23.629Z,-1.20
2017-11-15T02:08:58.446Z,-1.10
2017-11-15T02:11:32.365Z,-0.90
2017-11-15T02:14:06.968Z,-0.90
2017-11-15T02:16:41.511Z,-0.80
2017-11-15T02:19:16.617Z,-1.10
2017-11-15T02:21:50.394Z,-0.90
2017-11-15T02:24:24.193Z,-0.70
2017-11-15T02:26:58.146Z,-0.60
2017-11-15T02:29:33.035Z,-0.50
2017-11-15T02:32:07.659Z,-0.40
2017-11-15T02:34:42.159Z,-0.20
2017-11-15T02:37:15.915Z,-0.20
2017-11-15T02:39:49.666Z,-0.10
2017-11-15T02:42:24.254Z,0.00
2017-11-15T02:44:57.887Z,0.00
2017-11-15T02:47:32.393Z,0.10
2017-11-15T02:50:06.257Z,0.10
2017-11-15T02:52:40.163Z,0.10
2017-11-15T02:55:15.369Z,0.20
2017-11-15T02:57:49.258Z,0.20
2017-11-15T03:00:23.072Z,-0.10
2017-11-15T03:02:56.860Z,0.00
2017-11-15T03:05:30.751Z,0.20
2017-11-15T03:08:04.556Z,0.20
2017-11-15T03:10:38.419Z,0.20
2017-11-15T03:13:12.254Z,0.20
2017-11-15T03:15:46.105Z,0.30
2017-11-15T03:18:21.148Z,0.20
2017-11-15T03:20:55.898Z,-0.40
2017-11-15T03:23:29.534Z,-0.40
2017-11-15T03:26:03.376Z,-0.60
2017-11-15T03:28:38.409Z,-0.60
2017-11-15T03:31:12.231Z,-0.40
2017-11-15T03:33:45.955Z,-0.20
2017-11-15T03:36:20.979Z,0.00
2017-11-15T03:38:54.737Z,0.00
2017-11-15T03:41:28.691Z,0.10
2017-11-15T03:44:02.471Z,0.10
2017-11-15T03:46:36.318Z,0.00
2017-11-15T03:49:10.861Z,0.20
2017-11-15T03:51:45.432Z,0.30
2017-11-15T03:54:19.085Z,0.20
2017-11-15T03:56:52.847Z,0.40
2017-11-15T03:59:26.677Z,0.40
2017-11-15T04:02:01.188Z,0.30
2017-11-15T04:04:34.885Z,0.30
2017-11-15T04:07:08.721Z,0.30
2017-11-15T04:09:43.369Z,0.30
2017-11-15T04:12:17.255Z,0.30
2017-11-15T04:14:51.764Z,0.40
2017-11-15T04:17:25.643Z,0.30
2017-11-15T04:19:59.479Z,0.40
2017-11-15T04:22:33.376Z,0.40
2017-11-15T04:25:07.260Z,0.40
2017-11-15T04:27:41.008Z,0.40
2017-11-15T04:30:15.591Z,0.40
2017-11-15T04:32:50.343Z,0.40
2017-11-15T04:35:24.114Z,0.40
2017-11-15T04:37:58.025Z,0.30
2017-11-15T04:40:32.719Z,0.40
2017-11-15T04:43:07.182Z,0.40
2017-11-15T04:45:40.977Z,0.40
2017-11-15T04:48:14.831Z,0.30
2017-11-15T04:50:49.444Z,0.30
2017-11-15T04:53:23.117Z,0.40
2017-11-15T04:55:56.863Z,0.40
2017-11-15T04:58:30.570Z,0.50
2017-11-15T05:01:04.268Z,0.40
2017-11-15T05:03:38.810Z,0.20
2017-11-15T05:06:12.609Z,0.20
2017-11-15T05:08:46.340Z,0.10
2017-11-15T05:11:27.305Z,0.00
2017-11-15T05:14:01.697Z,-0.10
2017-11-15T05:16:36.152Z,-0.10
2017-11-15T05:19:10.616Z,-0.10
2017-11-15T05:21:50.823Z,0.00
2017-11-15T05:24:26.594Z,0.10
2017-11-15T05:27:02.495Z,0.00
2017-11-15T05:29:39.736Z,0.00
2017-11-15T05:32:23.128Z,0.10
2017-11-15T05:35:03.492Z,0.10
2017-11-15T05:37:38.447Z,0.10
2017-11-15T05:40:16.452Z,0.10
2017-11-15T05:42:55.688Z,0.20
2017-11-15T05:45:34.247Z,0.20
2017-11-15T05:48:09.012Z,0.30
2017-11-15T05:50:46.022Z,0.10
2017-11-15T05:53:21.629Z,0.10
2017-11-15T05:55:56.100Z,0.20
2017-11-15T05:58:32.704Z,0.20
2017-11-15T06:01:14.012Z,0.20
2017-11-15T06:03:52.607Z,0.10
2017-11-15T06:06:35.543Z,0.10
2017-11-15T06:09:11.393Z,0.10
2017-11-15T06:11:55.751Z,-0.10
2017-11-15T06:14:34.368Z,-0.10
2017-11-15T06:17:12.041Z,-0.10
2017-11-15T06:19:49.166Z,-0.10
2017-11-15T06:22:24.132Z,-0.10
2017-11-15T06:25:01.775Z,0.00
2017-11-15T06:27:42.322Z,-0.30
2017-11-15T06:30:20.327Z,-0.20
2017-11-15T06:32:54.289Z,-0.20
2017-11-15T06:35:27.925Z,-0.20
2017-11-15T06:38:08.976Z,-0.30
2017-11-15T06:40:52.897Z,-0.30
2017-11-15T06:43:31.909Z,-0.30
2017-11-15T06:46:12.303Z,-0.20
2017-11-15T06:48:49.102Z,-0.10
2017-11-15T06:51:25.941Z,-0.20
2017-11-15T06:53:59.898Z,-0.20
2017-11-15T06:56:39.271Z,-0.40
2017-11-15T06:59:18.522Z,-0.40
2017-11-15T07:01:53.823Z,-0.30
2017-11-15T07:04:27.619Z,-0.40
2017-11-15T07:07:01.372Z,-0.30
2017-11-15T07:09:35.202Z,-0.30
2017-11-15T07:12:08.829Z,-0.20
2017-11-15T07:14:48.527Z,-0.30
2017-11-15T07:17:22.273Z,-0.40
2017-11-15T07:19:57.647Z,-0.40
2017-11-15T07:22:32.312Z,-0.40
2017-11-15T07:25:07.617Z,-0.40
2017-11-15T07:27:41.393Z,-0.30
2017-11-15T07:30:15.132Z,-0.40
2017-11-15T07:32:50.526Z,-0.40
2017-11-15T07:35:24.300Z,-0.40
2017-11-15T07:37:58.031Z,-0.40
2017-11-15T07:40:31.829Z,-0.40
2017-11-15T07:43:06.453Z,-0.40
2017-11-15T07:45:40.209Z,-0.50
2017-11-15T07:48:14.017Z,-0.60
2017-11-15T07:50:48.405Z,-0.70
2017-11-15T07:53:22.243Z,-0.70
2017-11-15T07:55:56.079Z,-0.60
2017-11-15T07:58:30.104Z,-0.60
2017-11-15T08:01:04.724Z,-0.80
2017-11-15T08:03:39.682Z,-0.80
2017-11-15T08:06:13.637Z,-0.70
2017-11-15T08:08:47.457Z,-0.70
2017-11-15T08:11:23.126Z,-0.60
2017-11-15T08:13:57.833Z,-0.60
2017-11-15T08:16:32.541Z,-0.40
2017-11-15T08:19:06.280Z,-0.60
2017-11-15T08:21:40.860Z,-0.60
2017-11-15T08:24:14.510Z,-0.50
2017-11-15T08:26:49.299Z,-0.50
2017-11-15T08:29:23.037Z,-0.50
2017-11-15T08:31:56.853Z,-0.40
2017-11-15T08:34:30.668Z,-0.40
2017-11-15T08:37:04.352Z,-0.40
2017-11-15T08:39:39.921Z,-0.30
2017-11-15T08:42:13.770Z,-0.30
2017-11-15T08:44:47.631Z,-0.30
2017-11-15T08:47:21.287Z,-0.30
2017-11-15T08:49:54.991Z,-0.50
2017-11-15T08:52:28.926Z,-0.50
2017-11-15T08:55:02.726Z,-0.50
2017-11-15T08:57:39.006Z,-0.40
2017-11-15T09:00:12.726Z,-0.40
2017-11-15T09:02:47.646Z,-0.20
2017-11-15T09:05:21.590Z,-0.30
2017-11-15T09:07:55.332Z,-0.30
2017-11-15T09:10:29.062Z,-0.20
2017-11-15T09:13:03.299Z,-0.20
2017-11-15T09:15:37.131Z,-0.10
2017-11-15T09:18:11.759Z,0.00
2017-11-15T09:20:45.738Z,0.00
2017-11-15T09:23:19.725Z,-0.10
2017-11-15T09:25:53.294Z,0.10
2017-11-15T09:28:30.487Z,0.00
2017-11-15T09:31:04.112Z,0.00
2017-11-15T09:33:38.721Z,0.10
2017-11-15T09:36:13.389Z,0.10
2017-11-15T09:38:47.064Z,0.00
2017-11-15T09:41:21.664Z,0.20
2017-11-15T09:43:56.784Z,0.20
2017-11-15T09:46:30.679Z,0.30
2017-11-15T09:49:04.546Z,0.30
2017-11-15T09:51:38.344Z,0.40
2017-11-15T09:54:12.123Z,0.10
2017-11-15T09:56:46.624Z,0.40
2017-11-15T09:59:21.165Z,-0.30
2017-11-15T10:01:54.971Z,-0.70
2017-11-15T10:04:29.049Z,-0.70
2017-11-15T10:07:02.769Z,-0.20
2017-11-15T10:09:36.494Z,-0.40
2017-11-15T10:12:10.075Z,-0.50
2017-11-15T10:14:43.888Z,-0.60
2017-11-15T10:17:19.482Z,0.00
2017-11-15T10:19:53.075Z,0.00
2017-11-15T10:22:26.938Z,-0.10
2017-11-15T10:25:01.490Z,0.50
2017-11-15T10:27:37.052Z,0.60
2017-11-15T10:30:11.718Z,0.60
2017-11-15T10:32:45.488Z,0.90
2017-11-15T10:35:19.741Z,1.20
2017-11-15T10:37:53.558Z,1.30
2017-11-15T10:40:28.053Z,1.00
2017-11-15T10:43:01.907Z,1.10
2017-11-15T10:45:35.630Z,0.10
2017-11-15T10:48:09.427Z,0.30
2017-11-15T10:50:44.957Z,0.60
2017-11-15T10:53:18.789Z,0.90
2017-11-15T10:55:54.269Z,0.90
2017-11-15T10:58:28.271Z,0.90
2017-11-15T11:01:02.260Z,1.20
2017-11-15T11:03:36.861Z,1.50
2017-11-15T11:06:12.243Z,1.80
2017-11-15T11:08:47.588Z,2.00
2017-11-15T11:11:22.983Z,1.80
2017-11-15T11:13:56.803Z,1.80
2017-11-15T11:16:30.663Z,1.30
2017-11-15T11:19:04.456Z,1.10
2017-11-15T11:21:38.247Z,1.30
2017-11-15T11:24:11.922Z,1.60
2017-11-15T11:26:46.496Z,2.00
2017-11-15T11:29:21.240Z,2.40
2017-11-15T11:31:55.708Z,2.60
2017-11-15T11:34:29.678Z,2.90
2017-11-15T11:37:04.492Z,3.10
2017-11-15T11:39:39.164Z,3.30
2017-11-15T11:42:13.215Z,3.40
2017-11-15T11:44:46.973Z,3.50
2017-11-15T11:47:21.639Z,3.50
2017-11-15T11:49:55.367Z,3.40
2017-11-15T11:52:29.100Z,3.60
2017-11-15T11:55:03.016Z,3.10
2017-11-15T11:57:36.718Z,2.40
2017-11-15T12:00:10.585Z,2.50
2017-11-15T12:02:45.346Z,2.60
2017-11-15T12:05:20.035Z,2.80
2017-11-15T12:07:53.784Z,3.00
2017-11-15T12:10:27.407Z,2.70
2017-11-15T12:13:04.310Z,2.60
2017-11-15T12:15:39.265Z,2.60
2017-11-15T12:18:13.108Z,2.80
2017-11-15T12:20:46.705Z,3.00
2017-11-15T12:23:21.269Z,2.80
2017-11-15T12:25:55.010Z,2.70
2017-11-15T12:28:28.829Z,2.60
2017-11-15T12:31:03.280Z,2.40
2017-11-15T12:33:36.979Z,2.40
2017-11-15T12:36:10.809Z,2.40
2017-11-15T12:38:45.993Z,2.40
2017-11-15T12:41:19.851Z,2.40
2017-11-15T12:43:54.696Z,2.60
2017-11-15T12:46:29.312Z,2.20
2017-11-15T12:49:03.836Z,1.90
2017-11-15T12:51:37.800Z,1.90
2017-11-15T12:54:11.709Z,2.10
2017-11-15T12:56:45.446Z,2.40
2017-11-15T12:59:19.348Z,2.60
2017-11-15T13:01:53.250Z,2.60
2017-11-15T13:04:28.812Z,2.40
2017-11-15T13:07:02.413Z,2.00
2017-11-15T13:09:36.978Z,2.10
2017-11-15T13:12:10.926Z,2.50
2017-11-15T13:14:44.874Z,2.80
2017-11-15T13:17:18.566Z,2.60
2017-11-15T13:19:53.249Z,2.80
2017-11-15T13:22:26.979Z,2.90
2017-11-15T13:25:00.809Z,2.70
2017-11-15T13:27:34.874Z,2.60
2017-11-15T13:30:08.750Z,2.60
2017-11-15T13:32:42.526Z,2.80
2017-11-15T13:35:17.363Z,3.00
2017-11-15T13:37:52.052Z,3.00
2017-11-15T13:40:26.066Z,3.10
2017-11-15T13:43:00.769Z,2.70
2017-11-15T13:45:35.637Z,2.90
2017-11-15T13:48:10.231Z,2.80
2017-11-15T13:50:44.049Z,2.70
2017-11-15T13:53:17.791Z,3.00
2017-11-15T13:55:51.596Z,2.70
2017-11-15T13:58:25.350Z,2.50
2017-11-15T14:00:59.777Z,2.90
2017-11-15T14:03:33.407Z,2.60
2017-11-15T14:06:07.087Z,2.50
2017-11-15T14:08:41.719Z,2.60
2017-11-15T14:11:15.588Z,2.70
2017-11-15T14:13:51.039Z,2.40
2017-11-15T14:16:24.818Z,2.40
2017-11-15T14:18:59.373Z,2.40
2017-11-15T14:21:34.939Z,2.70
2017-11-15T14:24:09.234Z,2.70
2017-11-15T14:26:43.444Z,2.80
2017-11-15T14:29:17.220Z,2.90
2017-11-15T14:31:51.759Z,3.10
2017-11-15T14:34:25.359Z,3.30
2017-11-15T14:36:59.696Z,3.50
2017-11-15T14:39:33.541Z,3.70
2017-11-15T14:42:07.252Z,3.30
2017-11-15T14:44:42.109Z,2.90
2017-11-15T14:47:15.970Z,3.00
2017-11-15T14:49:50.518Z,3.00
2017-11-15T14:52:24.425Z,3.10
2017-11-15T14:54:58.054Z,2.90
2017-11-15T14:57:33.273Z,2.70
2017-11-15T15:00:07.787Z,2.80
2017-11-15T15:02:42.472Z,3.00
2017-11-15T15:05:16.831Z,2.90
2017-11-15T15:07:51.453Z,2.90
2017-11-15T15:10:26.672Z,2.80
2017-11-15T15:13:00.930Z,2.80
2017-11-15T15:15:34.606Z,2.90
2017-11-15T15:18:09.113Z,3.00
2017-11-15T15:20:43.965Z,2.90
2017-11-15T15:23:18.613Z,2.80
2017-11-15T15:25:52.482Z,3.00
2017-11-15T15:28:26.230Z,2.60
2017-11-15T15:31:00.870Z,2.50
2017-11-15T15:33:34.548Z,2.50
2017-11-15T15:36:09.579Z,2.60
2017-11-15T15:38:43.388Z,2.70
2017-11-15T15:41:17.856Z,3.00
2017-11-15T15:43:52.461Z,3.00
2017-11-15T15:46:26.222Z,3.00
2017-11-15T15:49:01.791Z,3.00
2017-11-15T15:51:37.277Z,3.00
2017-11-15T15:54:11.795Z,3.00
2017-11-15T15:56:45.665Z,2.90
2017-11-15T15:59:19.457Z,2.90
2017-11-15T16:01:53.218Z,2.90
2017-11-15T16:04:28.335Z,2.80
2017-11-15T16:07:03.054Z,2.90
2017-11-15T16:09:37.728Z,2.80
2017-11-15T16:12:11.367Z,2.90
2017-11-15T16:14:46.782Z,2.80
2017-11-15T16:17:20.615Z,2.80
2017-11-15T16:19:55.090Z,2.80
2017-11-15T16:22:29.542Z,2.80
2017-11-15T16:25:03.451Z,2.80
2017-11-15T16:27:37.387Z,2.80
2017-11-15T16:30:12.553Z,2.80
2017-11-15T16:32:46.392Z,2.70
2017-11-15T16:35:21.206Z,2.70
2017-11-15T16:37:55.620Z,2.80
2017-11-15T16:40:29.248Z,2.80
2017-11-15T16:43:03.019Z,2.80
2017-11-15T16:45:36.805Z,2.80
2017-11-15T16:48:10.634Z,2.70
2017-11-15T16:50:45.290Z,2.80
2017-11-15T16:53:19.695Z,2.80
2017-11-15T16:55:53.472Z,2.80
2017-11-15T16:58:27.946Z,2.80
2017-11-15T17:01:01.625Z,2.80
2017-11-15T17:03:35.406Z,2.80
2017-11-15T17:06:09.220Z,2.80
2017-11-15T17:08:44.075Z,2.80
2017-11-15T17:11:17.882Z,2.70
2017-11-15T17:13:54.064Z,2.80
2017-11-15T17:16:28.445Z,2.80
2017-11-15T17:19:02.327Z,2.80
2017-11-15T17:21:36.895Z,2.70
2017-11-15T17:24:11.844Z,2.70
2017-11-15T17:26:46.983Z,2.70
2017-11-15T17:29:20.687Z,2.70
2017-11-15T17:31:55.372Z,2.50
2017-11-15T17:34:32.541Z,2.50
2017-11-15T17:37:07.200Z,2.50
2017-11-15T17:39:41.469Z,2.50
2017-11-15T17:42:15.232Z,2.40
2017-11-15T17:44:49.115Z,2.40
2017-11-15T17:47:23.643Z,2.30
2017-11-15T17:49:57.323Z,2.30
2017-11-15T17:52:31.276Z,2.40
2017-11-15T17:55:05.208Z,2.30
2017-11-15T17:57:39.550Z,2.30
2017-11-15T18:00:13.357Z,2.30
2017-11-15T18:02:48.682Z,2.30
2017-11-15T18:05:23.405Z,2.30
2017-11-15T18:07:57.635Z,2.20
2017-11-15T18:10:31.559Z,2.20
2017-11-15T18:13:05.234Z,2.20
2017-11-15T18:15:39.709Z,2.20
2017-11-15T18:18:13.569Z,2.10
2017-11-15T18:20:47.399Z,2.20
2017-11-15T18:23:21.661Z,2.20
2017-11-15T18:25:55.538Z,2.20
2017-11-15T18:28:29.446Z,2.20
2017-11-15T18:31:03.208Z,2.30
2017-11-15T18:33:37.034Z,2.30
2017-11-15T18:36:10.758Z,2.50
2017-11-15T18:38:44.617Z,2.50
2017-11-15T18:41:18.481Z,2.40
2017-11-15T18:43:52.367Z,2.40
2017-11-15T18:46:26.999Z,2.50
2017-11-15T18:49:01.262Z,2.50
2017-11-15T18:51:35.727Z,2.30
2017-11-15T18:54:12.528Z,2.30
2017-11-15T18:56:47.010Z,2.30
2017-11-15T18:59:20.904Z,2.30
2017-11-15T19:01:56.320Z,2.30
2017-11-15T19:04:29.938Z,2.20
2017-11-15T19:07:04.987Z,2.30
2017-11-15T19:09:39.705Z,2.30
2017-11-15T19:12:13.498Z,2.40
2017-11-15T19:14:47.284Z,2.40
2017-11-15T19:17:22.672Z,2.30
2017-11-15T19:19:57.350Z,2.30
2017-11-15T19:22:31.061Z,2.30
2017-11-15T19:25:05.732Z,2.40
2017-11-15T19:27:39.564Z,2.40
2017-11-15T19:30:13.402Z,2.30
2017-11-15T19:32:47.096Z,2.30
2017-11-15T19:35:21.501Z,2.30
2017-11-15T19:37:55.155Z,2.20
2017-11-15T19:40:29.038Z,2.30
2017-11-15T19:43:02.909Z,2.30
2017-11-15T19:45:36.783Z,2.20
2017-11-15T19:48:10.639Z,2.20
2017-11-15T19:50:45.397Z,2.30
2017-11-15T19:53:21.929Z,2.20
2017-11-15T19:55:56.063Z,2.20
2017-11-15T19:58:30.773Z,2.20
2017-11-15T20:01:05.294Z,2.20
2017-11-15T20:03:40.048Z,2.10
2017-11-15T20:06:14.576Z,2.10
2017-11-15T20:08:48.340Z,2.00
2017-11-15T20:11:22.263Z,2.20
2017-11-15T20:13:56.080Z,2.20
2017-11-15T20:16:29.936Z,2.10
2017-11-15T20:19:03.668Z,2.00
2017-11-15T20:21:37.427Z,1.90
2017-11-15T20:24:11.229Z,1.80
2017-11-15T20:26:45.198Z,1.80
2017-11-15T20:29:18.995Z,1.90
2017-11-15T20:31:53.091Z,1.90
2017-11-15T20:34:26.728Z,2.00
2017-11-15T20:37:01.138Z,1.90
2017-11-15T20:39:34.872Z,2.00
2017-11-15T20:42:09.376Z,2.00
2017-11-15T20:44:44.824Z,1.90
2017-11-15T20:47:18.620Z,1.90
2017-11-15T20:49:52.574Z,2.00
2017-11-15T20:52:26.404Z,2.00
2017-11-15T20:55:00.029Z,1.80
2017-11-15T20:57:34.582Z,1.80
2017-11-15T21:00:12.053Z,1.80
2017-11-15T21:02:45.767Z,1.80
2017-11-15T21:05:19.675Z,1.90
2017-11-15T21:07:53.412Z,1.90
2017-11-15T21:10:27.222Z,1.90
2017-11-15T21:13:01.040Z,1.80
2017-11-15T21:15:35.743Z,1.90
2017-11-15T21:18:09.535Z,1.80
2017-11-15T21:20:43.320Z,1.90
2017-11-15T21:23:17.089Z,1.80
2017-11-15T21:25:50.959Z,1.90
2017-11-15T21:28:25.572Z,2.00
2017-11-15T21:30:59.437Z,1.90
2017-11-15T21:33:33.872Z,2.00
2017-11-15T21:36:07.606Z,2.10
2017-11-15T21:38:41.833Z,2.00
2017-11-15T21:41:16.306Z,2.10
2017-11-15T21:43:50.179Z,2.10
2017-11-15T21:46:24.591Z,2.00
2017-11-15T21:48:59.184Z,2.20
2017-11-15T21:51:34.512Z,2.20
2017-11-15T21:54:08.311Z,2.20
2017-11-15T21:56:41.989Z,2.30
2017-11-15T21:59:17.834Z,2.30
2017-11-15T22:01:51.707Z,2.30
2017-11-15T22:04:25.624Z,2.20
2017-11-15T22:06:59.440Z,2.10
2017-11-15T22:09:33.100Z,2.10
2017-11-15T22:12:06.909Z,2.10
2017-11-15T22:14:42.423Z,2.10
2017-11-15T22:17:16.990Z,2.20
2017-11-15T22:19:50.641Z,2.10
2017-11-15T22:22:24.377Z,2.20
2017-11-15T22:24:58.259Z,2.10
2017-11-15T22:27:31.995Z,2.10
2017-11-15T22:30:05.830Z,2.10
2017-11-15T22:32:42.170Z,2.10
2017-11-15T22:35:16.668Z,2.10
2017-11-15T22:37:51.131Z,2.10
2017-11-15T22:40:24.838Z,2.10
2017-11-15T22:42:58.401Z,2.10
2017-11-15T22:45:32.003Z,2.10
2017-11-15T22:48:05.646Z,2.00
2017-11-15T22:50:39.197Z,2.00
2017-11-15T22:53:13.520Z,2.00
2017-11-15T22:55:47.213Z,2.00
2017-11-15T22:58:20.829Z,2.00
2017-11-15T23:00:54.405Z,2.00
2017-11-15T23:03:28.023Z,1.90
2017-11-15T23:06:01.561Z,1.90
2017-11-15T23:08:35.156Z,1.90
2017-11-15T23:11:09.669Z,2.00
2017-11-15T23:13:44.405Z,1.90
2017-11-15T23:16:18.083Z,2.00
2017-11-15T23:18:52.751Z,1.90
2017-11-15T23:21:26.430Z,2.00
2017-11-15T23:24:01.064Z,1.80
2017-11-15T23:26:35.839Z,1.80
2017-11-15T23:29:11.149Z,1.80
2017-11-15T23:31:47.364Z,1.80
2017-11-15T23:34:21.512Z,1.80
2017-11-15T23:36:55.335Z,1.80
2017-11-15T23:39:29.042Z,1.70
2017-11-15T23:42:03.367Z,1.70
2017-11-15T23:44:37.312Z,1.60
2017-11-15T23:47:11.055Z,1.50
2017-11-15T23:49:44.687Z,1.60
2017-11-15T23:52:18.475Z,1.70
2017-11-15T23:54:52.903Z,1.70
2017-11-15T23:57:28.575Z,1.70
